sensor_id;sensor_type;location;lat;lon;timestamp;temperature;humidity
68215;DHT22;55036;52.138;5.236;2023-02-19T00:01:34;11.30;96.30
68215;DHT22;55036;52.138;5.236;2023-02-19T00:04:06;11.40;96.40
68215;DHT22;55036;52.138;5.236;2023-02-19T00:06:34;11.40;96.00
68215;DHT22;55036;52.138;5.236;2023-02-19T00:09:01;11.40;96.10
68215;DHT22;55036;52.138;5.236;2023-02-19T00:11:30;11.40;96.00
68215;DHT22;55036;52.138;5.236;2023-02-19T00:13:59;11.40;95.90
68215;DHT22;55036;52.138;5.236;2023-02-19T00:16:34;11.30;95.90
68215;DHT22;55036;52.138;5.236;2023-02-19T00:19:03;11.30;96.80
68215;DHT22;55036;52.138;5.236;2023-02-19T00:21:30;11.20;96.20
68215;DHT22;55036;52.138;5.236;2023-02-19T00:24:03;11.30;96.30
68215;DHT22;55036;52.138;5.236;2023-02-19T00:26:30;11.30;96.40
68215;DHT22;55036;52.138;5.236;2023-02-19T00:28:57;11.40;96.10
68215;DHT22;55036;52.138;5.236;2023-02-19T00:31:27;11.40;95.90
68215;DHT22;55036;52.138;5.236;2023-02-19T00:34:00;11.30;96.00
68215;DHT22;55036;52.138;5.236;2023-02-19T00:36:27;11.20;96.40
68215;DHT22;55036;52.138;5.236;2023-02-19T00:38:54;11.20;96.70
68215;DHT22;55036;52.138;5.236;2023-02-19T00:41:22;11.30;96.50
68215;DHT22;55036;52.138;5.236;2023-02-19T00:43:54;11.30;96.50
68215;DHT22;55036;52.138;5.236;2023-02-19T00:46:32;11.30;96.40
68215;DHT22;55036;52.138;5.236;2023-02-19T00:48:59;11.30;96.50
68215;DHT22;55036;52.138;5.236;2023-02-19T00:51:28;11.30;96.40
68215;DHT22;55036;52.138;5.236;2023-02-19T00:53:55;11.30;95.90
68215;DHT22;55036;52.138;5.236;2023-02-19T00:56:22;11.30;96.30
68215;DHT22;55036;52.138;5.236;2023-02-19T00:58:49;11.40;96.10
68215;DHT22;55036;52.138;5.236;2023-02-19T01:01:16;11.40;96.00
68215;DHT22;55036;52.138;5.236;2023-02-19T01:03:43;11.30;95.90
68215;DHT22;55036;52.138;5.236;2023-02-19T01:06:12;11.30;96.00
68215;DHT22;55036;52.138;5.236;2023-02-19T01:08:39;11.20;95.90
68215;DHT22;55036;52.138;5.236;2023-02-19T01:11:07;11.30;96.10
68215;DHT22;55036;52.138;5.236;2023-02-19T01:13:34;11.20;96.10
68215;DHT22;55036;52.138;5.236;2023-02-19T01:16:06;11.30;96.20
68215;DHT22;55036;52.138;5.236;2023-02-19T01:18:34;11.30;95.90
68215;DHT22;55036;52.138;5.236;2023-02-19T01:21:10;11.30;95.90
68215;DHT22;55036;52.138;5.236;2023-02-19T01:23:38;11.30;95.50
68215;DHT22;55036;52.138;5.236;2023-02-19T01:26:07;11.30;95.80
68215;DHT22;55036;52.138;5.236;2023-02-19T01:28:34;11.30;95.80
68215;DHT22;55036;52.138;5.236;2023-02-19T01:31:06;11.30;95.40
68215;DHT22;55036;52.138;5.236;2023-02-19T01:33:34;11.30;95.50
68215;DHT22;55036;52.138;5.236;2023-02-19T01:36:05;11.20;95.80
68215;DHT22;55036;52.138;5.236;2023-02-19T01:38:32;11.30;95.60
68215;DHT22;55036;52.138;5.236;2023-02-19T01:41:02;11.30;95.20
68215;DHT22;55036;52.138;5.236;2023-02-19T01:43:31;11.20;95.60
68215;DHT22;55036;52.138;5.236;2023-02-19T01:45:58;11.30;95.60
68215;DHT22;55036;52.138;5.236;2023-02-19T01:48:29;11.20;95.50
68215;DHT22;55036;52.138;5.236;2023-02-19T01:51:08;11.30;95.40
68215;DHT22;55036;52.138;5.236;2023-02-19T01:53:38;11.20;95.20
68215;DHT22;55036;52.138;5.236;2023-02-19T01:56:07;11.20;95.40
68215;DHT22;55036;52.138;5.236;2023-02-19T01:58:35;11.10;95.60
68215;DHT22;55036;52.138;5.236;2023-02-19T02:01:06;11.20;95.40
68215;DHT22;55036;52.138;5.236;2023-02-19T02:03:34;11.30;95.00
68215;DHT22;55036;52.138;5.236;2023-02-19T02:06:23;11.20;95.10
68215;DHT22;55036;52.138;5.236;2023-02-19T02:08:54;11.20;95.30
68215;DHT22;55036;52.138;5.236;2023-02-19T02:11:49;11.20;95.20
68215;DHT22;55036;52.138;5.236;2023-02-19T02:14:17;11.20;95.40
68215;DHT22;55036;52.138;5.236;2023-02-19T02:17:01;11.20;95.30
68215;DHT22;55036;52.138;5.236;2023-02-19T02:22:37;11.20;95.10
68215;DHT22;55036;52.138;5.236;2023-02-19T02:25:29;11.20;94.90
68215;DHT22;55036;52.138;5.236;2023-02-19T02:28:16;11.10;95.10
68215;DHT22;55036;52.138;5.236;2023-02-19T02:30:55;11.10;95.20
68215;DHT22;55036;52.138;5.236;2023-02-19T02:38:28;11.10;95.20
68215;DHT22;55036;52.138;5.236;2023-02-19T02:40:57;11.10;95.00
68215;DHT22;55036;52.138;5.236;2023-02-19T02:43:24;11.10;94.80
68215;DHT22;55036;52.138;5.236;2023-02-19T02:45:51;11.10;94.80
68215;DHT22;55036;52.138;5.236;2023-02-19T02:48:32;11.10;94.70
68215;DHT22;55036;52.138;5.236;2023-02-19T02:51:26;11.00;95.20
68215;DHT22;55036;52.138;5.236;2023-02-19T02:54:14;11.00;95.20
68215;DHT22;55036;52.138;5.236;2023-02-19T02:57:01;11.00;95.00
68215;DHT22;55036;52.138;5.236;2023-02-19T02:59:31;11.00;95.40
68215;DHT22;55036;52.138;5.236;2023-02-19T03:02:44;11.00;95.00
68215;DHT22;55036;52.138;5.236;2023-02-19T03:05:05;11.10;95.30
68215;DHT22;55036;52.138;5.236;2023-02-19T03:13:01;11.10;95.10
68215;DHT22;55036;52.138;5.236;2023-02-19T03:15:51;11.00;94.90
68215;DHT22;55036;52.138;5.236;2023-02-19T03:18:53;11.00;95.50
68215;DHT22;55036;52.138;5.236;2023-02-19T03:21:40;11.00;95.20
68215;DHT22;55036;52.138;5.236;2023-02-19T03:24:09;10.90;95.30
68215;DHT22;55036;52.138;5.236;2023-02-19T03:26:58;10.90;95.30
68215;DHT22;55036;52.138;5.236;2023-02-19T03:29:29;10.90;95.70
68215;DHT22;55036;52.138;5.236;2023-02-19T03:31:59;10.90;95.20
68215;DHT22;55036;52.138;5.236;2023-02-19T03:34:35;10.90;95.50
68215;DHT22;55036;52.138;5.236;2023-02-19T03:37:09;10.80;95.20
68215;DHT22;55036;52.138;5.236;2023-02-19T03:39:37;10.70;95.90
68215;DHT22;55036;52.138;5.236;2023-02-19T03:42:49;10.70;95.90
68215;DHT22;55036;52.138;5.236;2023-02-19T03:48:17;10.70;95.60
68215;DHT22;55036;52.138;5.236;2023-02-19T03:50:55;10.80;95.50
68215;DHT22;55036;52.138;5.236;2023-02-19T03:53:31;10.80;95.40
68215;DHT22;55036;52.138;5.236;2023-02-19T03:56:08;10.80;95.50
68215;DHT22;55036;52.138;5.236;2023-02-19T03:58:41;10.80;95.40
68215;DHT22;55036;52.138;5.236;2023-02-19T04:01:18;10.80;95.60
68215;DHT22;55036;52.138;5.236;2023-02-19T04:04:08;10.80;95.20
68215;DHT22;55036;52.138;5.236;2023-02-19T04:06:36;10.80;95.00
68215;DHT22;55036;52.138;5.236;2023-02-19T04:09:07;10.80;95.60
68215;DHT22;55036;52.138;5.236;2023-02-19T04:11:35;10.70;95.40
68215;DHT22;55036;52.138;5.236;2023-02-19T04:14:20;10.80;95.60
68215;DHT22;55036;52.138;5.236;2023-02-19T04:16:53;10.80;95.40
68215;DHT22;55036;52.138;5.236;2023-02-19T04:19:23;10.80;95.50
68215;DHT22;55036;52.138;5.236;2023-02-19T04:21:52;10.70;95.90
68215;DHT22;55036;52.138;5.236;2023-02-19T04:25:08;10.70;95.70
68215;DHT22;55036;52.138;5.236;2023-02-19T04:27:16;10.80;95.40
68215;DHT22;55036;52.138;5.236;2023-02-19T04:29:43;10.80;95.40
68215;DHT22;55036;52.138;5.236;2023-02-19T04:32:10;10.80;95.50
68215;DHT22;55036;52.138;5.236;2023-02-19T04:34:38;10.60;95.50
68215;DHT22;55036;52.138;5.236;2023-02-19T04:37:05;10.60;96.30
68215;DHT22;55036;52.138;5.236;2023-02-19T04:39:32;10.60;95.90
68215;DHT22;55036;52.138;5.236;2023-02-19T04:41:58;10.70;95.70
68215;DHT22;55036;52.138;5.236;2023-02-19T04:44:25;10.70;95.60
68215;DHT22;55036;52.138;5.236;2023-02-19T04:46:52;10.70;95.60
68215;DHT22;55036;52.138;5.236;2023-02-19T04:49:19;10.80;95.70
68215;DHT22;55036;52.138;5.236;2023-02-19T04:51:45;10.80;95.40
68215;DHT22;55036;52.138;5.236;2023-02-19T04:54:12;10.80;95.00
68215;DHT22;55036;52.138;5.236;2023-02-19T04:56:39;10.80;95.20
68215;DHT22;55036;52.138;5.236;2023-02-19T04:59:05;10.90;95.20
68215;DHT22;55036;52.138;5.236;2023-02-19T05:01:32;10.80;95.30
68215;DHT22;55036;52.138;5.236;2023-02-19T05:03:59;10.80;95.20
68215;DHT22;55036;52.138;5.236;2023-02-19T05:06:25;10.80;95.10
68215;DHT22;55036;52.138;5.236;2023-02-19T05:08:52;10.80;95.00
68215;DHT22;55036;52.138;5.236;2023-02-19T05:11:20;10.80;95.00
68215;DHT22;55036;52.138;5.236;2023-02-19T05:13:49;10.80;94.90
68215;DHT22;55036;52.138;5.236;2023-02-19T05:16:16;10.80;95.00
68215;DHT22;55036;52.138;5.236;2023-02-19T05:18:44;10.80;95.10
68215;DHT22;55036;52.138;5.236;2023-02-19T05:21:13;10.80;94.90
68215;DHT22;55036;52.138;5.236;2023-02-19T05:23:40;10.80;94.60
68215;DHT22;55036;52.138;5.236;2023-02-19T05:26:11;10.70;94.70
68215;DHT22;55036;52.138;5.236;2023-02-19T05:28:38;10.80;94.70
68215;DHT22;55036;52.138;5.236;2023-02-19T05:31:07;10.80;94.30
68215;DHT22;55036;52.138;5.236;2023-02-19T05:33:35;10.70;94.60
68215;DHT22;55036;52.138;5.236;2023-02-19T05:36:06;10.70;94.20
68215;DHT22;55036;52.138;5.236;2023-02-19T05:38:34;10.70;94.70
68215;DHT22;55036;52.138;5.236;2023-02-19T05:41:18;10.70;94.50
68215;DHT22;55036;52.138;5.236;2023-02-19T05:43:47;10.70;94.00
68215;DHT22;55036;52.138;5.236;2023-02-19T05:46:16;10.70;94.30
68215;DHT22;55036;52.138;5.236;2023-02-19T05:48:43;10.70;94.10
68215;DHT22;55036;52.138;5.236;2023-02-19T05:51:11;10.60;94.30
68215;DHT22;55036;52.138;5.236;2023-02-19T05:53:39;10.70;94.20
68215;DHT22;55036;52.138;5.236;2023-02-19T05:59:03;10.70;94.20
68215;DHT22;55036;52.138;5.236;2023-02-19T06:01:32;10.70;94.20
68215;DHT22;55036;52.138;5.236;2023-02-19T06:03:59;10.70;93.50
68215;DHT22;55036;52.138;5.236;2023-02-19T06:06:26;10.70;93.70
68215;DHT22;55036;52.138;5.236;2023-02-19T06:08:53;10.60;93.90
68215;DHT22;55036;52.138;5.236;2023-02-19T06:11:20;10.60;93.80
68215;DHT22;55036;52.138;5.236;2023-02-19T06:13:46;10.70;94.00
68215;DHT22;55036;52.138;5.236;2023-02-19T06:16:16;10.60;94.00
68215;DHT22;55036;52.138;5.236;2023-02-19T06:18:44;10.60;94.40
68215;DHT22;55036;52.138;5.236;2023-02-19T06:21:11;10.60;94.30
68215;DHT22;55036;52.138;5.236;2023-02-19T06:23:38;10.60;94.30
68215;DHT22;55036;52.138;5.236;2023-02-19T06:26:20;10.50;94.70
68215;DHT22;55036;52.138;5.236;2023-02-19T06:28:49;10.50;94.90
68215;DHT22;55036;52.138;5.236;2023-02-19T06:31:18;10.40;95.10
68215;DHT22;55036;52.138;5.236;2023-02-19T06:33:45;10.50;95.10
68215;DHT22;55036;52.138;5.236;2023-02-19T06:36:14;10.40;95.40
68215;DHT22;55036;52.138;5.236;2023-02-19T06:38:41;10.40;95.30
68215;DHT22;55036;52.138;5.236;2023-02-19T06:41:09;10.40;95.20
68215;DHT22;55036;52.138;5.236;2023-02-19T06:43:36;10.50;95.10
68215;DHT22;55036;52.138;5.236;2023-02-19T06:46:05;10.60;94.70
68215;DHT22;55036;52.138;5.236;2023-02-19T06:48:32;10.60;94.90
68215;DHT22;55036;52.138;5.236;2023-02-19T06:50:59;10.60;94.70
68215;DHT22;55036;52.138;5.236;2023-02-19T06:53:26;10.50;94.80
68215;DHT22;55036;52.138;5.236;2023-02-19T06:56:01;10.50;94.90
68215;DHT22;55036;52.138;5.236;2023-02-19T06:58:29;10.50;94.70
68215;DHT22;55036;52.138;5.236;2023-02-19T07:00:55;10.50;95.10
68215;DHT22;55036;52.138;5.236;2023-02-19T07:03:22;10.50;95.00
68215;DHT22;55036;52.138;5.236;2023-02-19T07:05:49;10.40;95.00
68215;DHT22;55036;52.138;5.236;2023-02-19T07:08:16;10.40;95.30
68215;DHT22;55036;52.138;5.236;2023-02-19T07:10:53;10.40;95.10
68215;DHT22;55036;52.138;5.236;2023-02-19T07:13:21;10.30;95.20
68215;DHT22;55036;52.138;5.236;2023-02-19T07:15:48;10.40;95.30
68215;DHT22;55036;52.138;5.236;2023-02-19T07:18:17;10.40;94.90
68215;DHT22;55036;52.138;5.236;2023-02-19T07:20:44;10.50;95.00
68215;DHT22;55036;52.138;5.236;2023-02-19T07:23:11;10.50;95.10
68215;DHT22;55036;52.138;5.236;2023-02-19T07:25:38;10.60;94.80
68215;DHT22;55036;52.138;5.236;2023-02-19T07:28:05;10.50;94.80
68215;DHT22;55036;52.138;5.236;2023-02-19T07:30:32;10.50;94.90
68215;DHT22;55036;52.138;5.236;2023-02-19T07:32:59;10.50;95.10
68215;DHT22;55036;52.138;5.236;2023-02-19T07:35:26;10.50;94.90
68215;DHT22;55036;52.138;5.236;2023-02-19T07:37:52;10.50;94.90
68215;DHT22;55036;52.138;5.236;2023-02-19T07:40:19;10.50;94.90
68215;DHT22;55036;52.138;5.236;2023-02-19T07:42:46;10.50;94.90
68215;DHT22;55036;52.138;5.236;2023-02-19T07:45:13;10.60;94.90
68215;DHT22;55036;52.138;5.236;2023-02-19T07:47:39;10.50;94.90
68215;DHT22;55036;52.138;5.236;2023-02-19T07:50:06;10.60;94.60
68215;DHT22;55036;52.138;5.236;2023-02-19T07:52:33;10.50;94.80
68215;DHT22;55036;52.138;5.236;2023-02-19T07:55:00;10.60;95.00
68215;DHT22;55036;52.138;5.236;2023-02-19T07:57:27;10.60;94.80
68215;DHT22;55036;52.138;5.236;2023-02-19T07:59:56;10.60;94.70
68215;DHT22;55036;52.138;5.236;2023-02-19T08:02:24;10.60;94.80
68215;DHT22;55036;52.138;5.236;2023-02-19T08:05:09;10.70;94.60
68215;DHT22;55036;52.138;5.236;2023-02-19T08:07:36;10.70;94.60
68215;DHT22;55036;52.138;5.236;2023-02-19T08:10:04;10.70;94.60
68215;DHT22;55036;52.138;5.236;2023-02-19T08:12:57;10.60;94.80
68215;DHT22;55036;52.138;5.236;2023-02-19T08:15:42;10.60;94.50
68215;DHT22;55036;52.138;5.236;2023-02-19T08:18:11;10.60;94.40
68215;DHT22;55036;52.138;5.236;2023-02-19T08:20:38;10.60;94.80
68215;DHT22;55036;52.138;5.236;2023-02-19T08:23:05;10.50;94.60
68215;DHT22;55036;52.138;5.236;2023-02-19T08:25:32;10.50;95.00
68215;DHT22;55036;52.138;5.236;2023-02-19T08:27:59;10.50;94.90
68215;DHT22;55036;52.138;5.236;2023-02-19T08:30:27;10.50;95.10
68215;DHT22;55036;52.138;5.236;2023-02-19T08:32:56;10.50;95.30
68215;DHT22;55036;52.138;5.236;2023-02-19T08:35:23;10.50;95.20
68215;DHT22;55036;52.138;5.236;2023-02-19T08:37:50;10.60;95.00
68215;DHT22;55036;52.138;5.236;2023-02-19T08:40:17;10.60;95.10
68215;DHT22;55036;52.138;5.236;2023-02-19T08:42:43;10.60;95.10
68215;DHT22;55036;52.138;5.236;2023-02-19T08:45:10;10.70;95.10
68215;DHT22;55036;52.138;5.236;2023-02-19T08:47:37;10.70;95.30
68215;DHT22;55036;52.138;5.236;2023-02-19T08:50:05;10.80;95.20
68215;DHT22;55036;52.138;5.236;2023-02-19T08:52:32;10.80;94.30
68215;DHT22;55036;52.138;5.236;2023-02-19T08:55:00;10.80;94.70
68215;DHT22;55036;52.138;5.236;2023-02-19T08:57:27;10.70;95.10
68215;DHT22;55036;52.138;5.236;2023-02-19T08:59:55;10.80;95.30
68215;DHT22;55036;52.138;5.236;2023-02-19T09:02:25;11.00;95.10
68215;DHT22;55036;52.138;5.236;2023-02-19T09:04:51;11.00;94.90
68215;DHT22;55036;52.138;5.236;2023-02-19T09:07:19;11.10;94.60
68215;DHT22;55036;52.138;5.236;2023-02-19T09:09:45;11.10;94.80
68215;DHT22;55036;52.138;5.236;2023-02-19T09:12:12;11.10;94.50
68215;DHT22;55036;52.138;5.236;2023-02-19T09:14:39;11.20;94.50
68215;DHT22;55036;52.138;5.236;2023-02-19T09:17:07;11.20;94.50
68215;DHT22;55036;52.138;5.236;2023-02-19T09:19:35;11.20;94.40
68215;DHT22;55036;52.138;5.236;2023-02-19T09:22:03;11.20;94.40
68215;DHT22;55036;52.138;5.236;2023-02-19T09:24:30;11.20;94.20
68215;DHT22;55036;52.138;5.236;2023-02-19T09:26:57;11.20;94.40
68215;DHT22;55036;52.138;5.236;2023-02-19T09:29:26;11.20;94.40
68215;DHT22;55036;52.138;5.236;2023-02-19T09:31:57;11.20;94.00
68215;DHT22;55036;52.138;5.236;2023-02-19T09:34:25;11.10;94.00
68215;DHT22;55036;52.138;5.236;2023-02-19T09:36:52;10.90;94.10
68215;DHT22;55036;52.138;5.236;2023-02-19T09:39:19;10.80;94.50
68215;DHT22;55036;52.138;5.236;2023-02-19T09:41:54;10.80;94.40
68215;DHT22;55036;52.138;5.236;2023-02-19T09:44:28;10.90;94.50
68215;DHT22;55036;52.138;5.236;2023-02-19T09:46:57;10.90;94.70
68215;DHT22;55036;52.138;5.236;2023-02-19T09:49:31;11.00;94.70
68215;DHT22;55036;52.138;5.236;2023-02-19T09:52:05;11.00;94.80
68215;DHT22;55036;52.138;5.236;2023-02-19T09:54:35;11.00;94.40
68215;DHT22;55036;52.138;5.236;2023-02-19T09:57:03;11.10;94.50
68215;DHT22;55036;52.138;5.236;2023-02-19T10:02:30;11.20;94.20
68215;DHT22;55036;52.138;5.236;2023-02-19T10:04:57;11.20;94.20
68215;DHT22;55036;52.138;5.236;2023-02-19T10:07:30;11.20;93.90
68215;DHT22;55036;52.138;5.236;2023-02-19T10:12:45;11.00;94.00
68215;DHT22;55036;52.138;5.236;2023-02-19T10:15:35;11.00;94.10
68215;DHT22;55036;52.138;5.236;2023-02-19T10:18:03;11.00;94.00
68215;DHT22;55036;52.138;5.236;2023-02-19T10:20:31;10.90;93.80
68215;DHT22;55036;52.138;5.236;2023-02-19T10:23:02;10.80;93.90
68215;DHT22;55036;52.138;5.236;2023-02-19T10:25:30;10.70;94.00
68215;DHT22;55036;52.138;5.236;2023-02-19T10:28:01;10.60;94.30
68215;DHT22;55036;52.138;5.236;2023-02-19T10:30:33;10.60;94.30
68215;DHT22;55036;52.138;5.236;2023-02-19T10:33:10;10.60;94.70
68215;DHT22;55036;52.138;5.236;2023-02-19T10:35:58;10.60;94.70
68215;DHT22;55036;52.138;5.236;2023-02-19T10:38:32;10.80;94.70
68215;DHT22;55036;52.138;5.236;2023-02-19T10:41:05;10.80;94.60
68215;DHT22;55036;52.138;5.236;2023-02-19T10:43:35;10.80;94.60
68215;DHT22;55036;52.138;5.236;2023-02-19T10:46:13;10.90;94.30
68215;DHT22;55036;52.138;5.236;2023-02-19T10:48:54;10.70;93.60
68215;DHT22;55036;52.138;5.236;2023-02-19T10:51:39;10.50;93.90
68215;DHT22;55036;52.138;5.236;2023-02-19T10:56:44;10.70;93.70
68215;DHT22;55036;52.138;5.236;2023-02-19T10:59:22;10.60;93.90
68215;DHT22;55036;52.138;5.236;2023-02-19T11:02:15;10.80;93.70
68215;DHT22;55036;52.138;5.236;2023-02-19T11:05:05;10.80;93.70
68215;DHT22;55036;52.138;5.236;2023-02-19T11:07:32;10.90;93.50
68215;DHT22;55036;52.138;5.236;2023-02-19T11:09:59;10.90;93.60
68215;DHT22;55036;52.138;5.236;2023-02-19T11:12:27;10.90;93.30
68215;DHT22;55036;52.138;5.236;2023-02-19T11:14:55;11.00;93.70
68215;DHT22;55036;52.138;5.236;2023-02-19T11:17:24;11.10;93.60
68215;DHT22;55036;52.138;5.236;2023-02-19T11:20:08;11.30;93.50
68215;DHT22;55036;52.138;5.236;2023-02-19T11:22:41;11.30;93.00
68215;DHT22;55036;52.138;5.236;2023-02-19T11:30:39;11.10;91.50
68215;DHT22;55036;52.138;5.236;2023-02-19T11:35:42;10.80;92.00
68215;DHT22;55036;52.138;5.236;2023-02-19T11:38:11;10.90;92.20
68215;DHT22;55036;52.138;5.236;2023-02-19T11:48:41;11.00;92.30
68215;DHT22;55036;52.138;5.236;2023-02-19T11:53:46;11.00;92.10
68215;DHT22;55036;52.138;5.236;2023-02-19T11:56:22;11.00;92.20
68215;DHT22;55036;52.138;5.236;2023-02-19T11:59:02;10.90;91.60
68215;DHT22;55036;52.138;5.236;2023-02-19T12:04:14;10.70;91.80
68215;DHT22;55036;52.138;5.236;2023-02-19T12:09:42;10.60;91.50
68215;DHT22;55036;52.138;5.236;2023-02-19T12:17:42;10.60;91.80
68215;DHT22;55036;52.138;5.236;2023-02-19T12:22:42;10.70;91.70
68215;DHT22;55036;52.138;5.236;2023-02-19T12:25:31;10.70;91.70
68215;DHT22;55036;52.138;5.236;2023-02-19T12:28:23;10.80;91.20
68215;DHT22;55036;52.138;5.236;2023-02-19T12:31:16;10.70;91.60
68215;DHT22;55036;52.138;5.236;2023-02-19T12:39:38;10.50;90.70
68215;DHT22;55036;52.138;5.236;2023-02-19T12:44:52;10.20;91.10
68215;DHT22;55036;52.138;5.236;2023-02-19T12:47:27;10.30;91.10
68215;DHT22;55036;52.138;5.236;2023-02-19T12:52:37;9.90;90.70
68215;DHT22;55036;52.138;5.236;2023-02-19T12:55:25;9.80;90.90
68215;DHT22;55036;52.138;5.236;2023-02-19T12:57:54;9.70;91.00
68215;DHT22;55036;52.138;5.236;2023-02-19T13:00:32;9.70;91.20
68215;DHT22;55036;52.138;5.236;2023-02-19T13:05:54;9.60;91.50
68215;DHT22;55036;52.138;5.236;2023-02-19T13:11:13;9.60;90.80
68215;DHT22;55036;52.138;5.236;2023-02-19T13:13:50;9.60;91.30
68215;DHT22;55036;52.138;5.236;2023-02-19T13:16:19;9.50;91.50
68215;DHT22;55036;52.138;5.236;2023-02-19T13:18:48;9.50;91.70
68215;DHT22;55036;52.138;5.236;2023-02-19T13:21:18;9.60;91.60
68215;DHT22;55036;52.138;5.236;2023-02-19T13:24:07;9.60;91.30
68215;DHT22;55036;52.138;5.236;2023-02-19T13:32:58;9.50;91.20
68215;DHT22;55036;52.138;5.236;2023-02-19T13:38:26;9.70;91.20
68215;DHT22;55036;52.138;5.236;2023-02-19T13:40:55;9.80;91.20
68215;DHT22;55036;52.138;5.236;2023-02-19T13:43:34;9.90;91.10
68215;DHT22;55036;52.138;5.236;2023-02-19T13:46:10;9.90;90.90
68215;DHT22;55036;52.138;5.236;2023-02-19T13:48:39;9.90;90.90
68215;DHT22;55036;52.138;5.236;2023-02-19T13:59:23;9.80;90.70
68215;DHT22;55036;52.138;5.236;2023-02-19T14:09:44;10.00;90.90
68215;DHT22;55036;52.138;5.236;2023-02-19T14:14:52;10.00;90.80
68215;DHT22;55036;52.138;5.236;2023-02-19T14:17:26;10.10;90.70
68215;DHT22;55036;52.138;5.236;2023-02-19T14:28:18;10.20;90.70
68215;DHT22;55036;52.138;5.236;2023-02-19T14:33:20;10.10;90.60
68215;DHT22;55036;52.138;5.236;2023-02-19T14:35:52;10.10;90.50
68215;DHT22;55036;52.138;5.236;2023-02-19T14:38:25;10.20;90.80
68215;DHT22;55036;52.138;5.236;2023-02-19T14:40:54;10.30;90.80
68215;DHT22;55036;52.138;5.236;2023-02-19T14:43:23;10.40;90.60
68215;DHT22;55036;52.138;5.236;2023-02-19T14:45:59;10.50;90.60
68215;DHT22;55036;52.138;5.236;2023-02-19T14:48:33;10.50;90.40
68215;DHT22;55036;52.138;5.236;2023-02-19T14:51:13;10.60;90.50
68215;DHT22;55036;52.138;5.236;2023-02-19T14:53:43;10.60;90.30
68215;DHT22;55036;52.138;5.236;2023-02-19T14:56:20;10.60;90.00
68215;DHT22;55036;52.138;5.236;2023-02-19T15:01:37;10.60;89.70
68215;DHT22;55036;52.138;5.236;2023-02-19T15:04:05;10.60;90.00
68215;DHT22;55036;52.138;5.236;2023-02-19T15:06:34;10.60;88.00
68215;DHT22;55036;52.138;5.236;2023-02-19T15:09:05;10.40;89.00
68215;DHT22;55036;52.138;5.236;2023-02-19T15:11:33;10.50;89.30
68215;DHT22;55036;52.138;5.236;2023-02-19T15:14:05;10.50;88.80
68215;DHT22;55036;52.138;5.236;2023-02-19T15:16:34;10.50;89.10
68215;DHT22;55036;52.138;5.236;2023-02-19T15:19:05;10.50;88.80
68215;DHT22;55036;52.138;5.236;2023-02-19T15:21:36;10.30;87.80
68215;DHT22;55036;52.138;5.236;2023-02-19T15:24:05;10.10;87.80
68215;DHT22;55036;52.138;5.236;2023-02-19T15:29:07;9.90;89.00
68215;DHT22;55036;52.138;5.236;2023-02-19T15:31:34;9.90;89.20
68215;DHT22;55036;52.138;5.236;2023-02-19T15:34:01;9.90;89.30
68215;DHT22;55036;52.138;5.236;2023-02-19T15:36:31;9.80;89.50
68215;DHT22;55036;52.138;5.236;2023-02-19T15:39:00;9.90;90.10
68215;DHT22;55036;52.138;5.236;2023-02-19T15:41:31;10.00;89.60
68215;DHT22;55036;52.138;5.236;2023-02-19T15:44:19;10.00;89.50
68215;DHT22;55036;52.138;5.236;2023-02-19T15:46:49;9.90;89.10
68215;DHT22;55036;52.138;5.236;2023-02-19T15:49:38;10.00;89.20
68215;DHT22;55036;52.138;5.236;2023-02-19T15:52:16;10.00;89.20
68215;DHT22;55036;52.138;5.236;2023-02-19T15:57:40;10.00;89.00
68215;DHT22;55036;52.138;5.236;2023-02-19T16:02:41;9.90;88.80
68215;DHT22;55036;52.138;5.236;2023-02-19T16:05:21;9.90;88.80
68215;DHT22;55036;52.138;5.236;2023-02-19T16:08:07;10.00;89.10
68215;DHT22;55036;52.138;5.236;2023-02-19T16:10:52;10.00;89.00
68215;DHT22;55036;52.138;5.236;2023-02-19T16:13:22;9.90;88.80
68215;DHT22;55036;52.138;5.236;2023-02-19T16:15:58;9.90;88.90
68215;DHT22;55036;52.138;5.236;2023-02-19T16:18:26;9.90;88.50
68215;DHT22;55036;52.138;5.236;2023-02-19T16:20:52;9.80;88.70
68215;DHT22;55036;52.138;5.236;2023-02-19T16:23:19;9.70;89.00
68215;DHT22;55036;52.138;5.236;2023-02-19T16:25:57;9.80;89.10
68215;DHT22;55036;52.138;5.236;2023-02-19T16:28:26;9.80;88.90
68215;DHT22;55036;52.138;5.236;2023-02-19T16:30:59;9.80;88.70
68215;DHT22;55036;52.138;5.236;2023-02-19T16:36:19;9.50;89.10
68215;DHT22;55036;52.138;5.236;2023-02-19T16:41:33;9.50;88.90
68215;DHT22;55036;52.138;5.236;2023-02-19T16:43:59;9.50;89.20
68215;DHT22;55036;52.138;5.236;2023-02-19T16:46:32;9.40;89.30
68215;DHT22;55036;52.138;5.236;2023-02-19T16:48:58;9.40;89.50
68215;DHT22;55036;52.138;5.236;2023-02-19T16:51:26;9.40;89.10
68215;DHT22;55036;52.138;5.236;2023-02-19T16:53:53;9.50;89.00
68215;DHT22;55036;52.138;5.236;2023-02-19T16:56:20;9.50;88.10
68215;DHT22;55036;52.138;5.236;2023-02-19T16:58:51;9.50;89.00
68215;DHT22;55036;52.138;5.236;2023-02-19T17:01:18;9.40;88.00
68215;DHT22;55036;52.138;5.236;2023-02-19T17:03:45;9.40;88.70
68215;DHT22;55036;52.138;5.236;2023-02-19T17:06:13;9.30;87.80
68215;DHT22;55036;52.138;5.236;2023-02-19T17:08:41;9.30;88.30
68215;DHT22;55036;52.138;5.236;2023-02-19T17:11:13;9.40;88.70
68215;DHT22;55036;52.138;5.236;2023-02-19T17:13:42;9.30;86.60
68215;DHT22;55036;52.138;5.236;2023-02-19T17:16:22;9.30;87.80
68215;DHT22;55036;52.138;5.236;2023-02-19T17:18:49;9.40;87.90
68215;DHT22;55036;52.138;5.236;2023-02-19T17:21:22;9.40;87.70
68215;DHT22;55036;52.138;5.236;2023-02-19T17:23:50;9.40;87.80
68215;DHT22;55036;52.138;5.236;2023-02-19T17:26:19;9.40;87.50
68215;DHT22;55036;52.138;5.236;2023-02-19T17:28:46;9.40;86.80
68215;DHT22;55036;52.138;5.236;2023-02-19T17:31:13;9.40;87.60
68215;DHT22;55036;52.138;5.236;2023-02-19T17:33:40;9.40;87.40
68215;DHT22;55036;52.138;5.236;2023-02-19T17:36:16;9.40;87.20
68215;DHT22;55036;52.138;5.236;2023-02-19T17:38:43;9.40;87.40
68215;DHT22;55036;52.138;5.236;2023-02-19T17:41:10;9.50;87.30
68215;DHT22;55036;52.138;5.236;2023-02-19T17:43:37;9.40;86.90
68215;DHT22;55036;52.138;5.236;2023-02-19T17:46:04;9.40;86.00
68215;DHT22;55036;52.138;5.236;2023-02-19T17:48:31;9.30;86.00
68215;DHT22;55036;52.138;5.236;2023-02-19T17:50:58;9.20;86.10
68215;DHT22;55036;52.138;5.236;2023-02-19T17:53:25;9.10;86.20
68215;DHT22;55036;52.138;5.236;2023-02-19T17:55:51;9.10;86.70
68215;DHT22;55036;52.138;5.236;2023-02-19T17:58:18;9.10;86.40
68215;DHT22;55036;52.138;5.236;2023-02-19T18:00:45;9.20;86.70
68215;DHT22;55036;52.138;5.236;2023-02-19T18:03:12;9.10;86.30
68215;DHT22;55036;52.138;5.236;2023-02-19T18:05:38;9.20;86.60
68215;DHT22;55036;52.138;5.236;2023-02-19T18:08:05;9.20;86.30
68215;DHT22;55036;52.138;5.236;2023-02-19T18:10:32;9.20;86.20
68215;DHT22;55036;52.138;5.236;2023-02-19T18:12:59;9.20;85.80